Time;durP1;ratioP1;P1;durP2;ratioP2;P2;SDS_P1;SDS_P2;PMS_P1;PMS_P2;Temp;Humidity;BMP_temperature;BMP_pressure;BME280_temperature;BME280_humidity;BME280_pressure;Samples;Min_cycle;Max_cycle;Signal;HPM_P1;HPM_P2
2022/04/23 00:00:34;;;;;;;16.38;9.27;;;;;;;;;;5030245;28;20052;-63
2022/04/23 00:03:01;;;;;;;18.25;11.23;;;;;;;;;;5029431;28;20057;-63
2022/04/23 00:05:28;;;;;;;17.48;10.95;;;;;;;;;;5029118;28;20039;-64
2022/04/23 00:08:00;;;;;;;20.40;11.35;;;;;;;;;;4988663;28;20539;-64
2022/04/23 00:10:26;;;;;;;20.33;11.07;;;;;;;;;;4988806;28;20045;-64
2022/04/23 00:12:54;;;;;;;17.48;11.23;;;;;;;;;;4987068;28;20109;-64
2022/04/23 00:15:21;;;;;;;18.60;11.73;;;;;;;;;;4988564;28;20034;-64
2022/04/23 00:17:47;;;;;;;16.05;10.75;;;;;;;;;;4987323;28;20146;-64
2022/04/23 00:20:13;;;;;;;20.17;10.85;;;;;;;;;;4986759;28;20264;-64
2022/04/23 00:22:40;;;;;;;18.25;10.88;;;;;;;;;;4987458;28;20058;-63
2022/04/23 00:25:07;;;;;;;18.88;11.00;;;;;;;;;;4987931;28;20057;-64
2022/04/23 00:27:33;;;;;;;18.58;10.85;;;;;;;;;;4986854;28;20080;-63
2022/04/23 00:30:00;;;;;;;15.02;9.93;;;;;;;;;;4971414;28;20125;-64
2022/04/23 00:32:26;;;;;;;17.98;10.80;;;;;;;;;;4987761;28;20038;-63
2022/04/23 00:34:52;;;;;;;17.13;11.35;;;;;;;;;;4974486;28;20407;-63
2022/04/23 00:43:29;;;;;;;18.20;11.48;;;;;;;;;;5031814;28;20037;-64
2022/04/23 00:45:56;;;;;;;18.17;12.00;;;;;;;;;;5031339;28;20045;-64
2022/04/23 00:48:24;;;;;;;20.55;12.23;;;;;;;;;;5029004;28;20021;-64
2022/04/23 00:50:54;;;;;;;23.70;11.60;;;;;;;;;;5030971;28;20045;-63
2022/04/23 00:53:21;;;;;;;18.77;11.20;;;;;;;;;;5030732;28;20025;-64
2022/04/23 00:55:47;;;;;;;17.92;11.48;;;;;;;;;;5028844;28;20026;-63
2022/04/23 00:58:16;;;;;;;18.80;11.65;;;;;;;;;;5028666;28;20041;-63
2022/04/23 01:00:42;;;;;;;17.63;11.38;;;;;;;;;;5029826;28;20029;-63
2022/04/23 01:03:08;;;;;;;17.25;11.18;;;;;;;;;;5028511;28;20036;-63
2022/04/23 01:05:34;;;;;;;17.58;11.60;;;;;;;;;;5028652;28;20181;-63
2022/04/23 01:08:04;;;;;;;19.60;12.15;;;;;;;;;;5028496;28;20529;-63
2022/04/23 01:10:30;;;;;;;17.55;12.48;;;;;;;;;;5028138;28;20029;-63
2022/04/23 01:12:56;;;;;;;16.52;11.30;;;;;;;;;;5032911;28;20025;-64
2022/04/23 01:15:22;;;;;;;16.48;11.60;;;;;;;;;;5029294;28;20040;-64
2022/04/23 01:17:49;;;;;;;22.80;12.02;;;;;;;;;;5027400;28;20037;-64
2022/04/23 01:20:16;;;;;;;24.30;12.10;;;;;;;;;;5030989;28;20112;-63
2022/04/23 01:22:43;;;;;;;21.00;12.07;;;;;;;;;;5032078;28;20021;-63
2022/04/23 01:25:12;;;;;;;26.42;13.02;;;;;;;;;;5031957;28;20064;-63
2022/04/23 01:27:38;;;;;;;20.48;10.63;;;;;;;;;;5032546;28;20026;-63
2022/04/23 01:30:06;;;;;;;18.25;11.13;;;;;;;;;;5032481;28;20030;-64
2022/04/23 01:32:32;;;;;;;22.25;11.55;;;;;;;;;;5031135;28;20041;-64
2022/04/23 01:34:58;;;;;;;20.35;12.10;;;;;;;;;;5030763;28;20517;-64
2022/04/23 01:37:24;;;;;;;18.27;12.75;;;;;;;;;;5031363;28;20083;-64
2022/04/23 01:39:50;;;;;;;19.17;11.77;;;;;;;;;;5028730;28;20017;-63
2022/04/23 01:42:19;;;;;;;18.70;11.63;;;;;;;;;;5031539;28;20033;-64
2022/04/23 01:44:46;;;;;;;18.33;12.25;;;;;;;;;;5032850;28;20021;-63
2022/04/23 01:47:12;;;;;;;18.50;11.32;;;;;;;;;;5030640;28;20117;-63
2022/04/23 01:49:39;;;;;;;18.60;11.30;;;;;;;;;;5031477;28;20038;-63
2022/04/23 01:52:05;;;;;;;19.52;11.70;;;;;;;;;;5032327;28;20036;-64
2022/04/23 01:54:32;;;;;;;18.13;11.88;;;;;;;;;;5032494;28;20025;-63
2022/04/23 01:56:58;;;;;;;17.25;11.82;;;;;;;;;;5032217;28;20160;-64
2022/04/23 01:59:24;;;;;;;18.95;11.90;;;;;;;;;;5014063;28;20112;-64
2022/04/23 02:01:51;;;;;;;18.05;11.35;;;;;;;;;;5026303;28;20152;-63
2022/04/23 02:04:17;;;;;;;20.13;12.23;;;;;;;;;;5011412;28;20119;-64
2022/04/23 02:06:43;;;;;;;20.45;12.32;;;;;;;;;;5032689;28;20017;-63
2022/04/23 02:12:28;;;;;;;20.33;11.38;;;;;;;;;;5035800;28;20028;-63
2022/04/23 02:14:55;;;;;;;19.92;11.35;;;;;;;;;;5031930;28;20030;-63
2022/04/23 02:17:21;;;;;;;18.35;11.48;;;;;;;;;;5029084;28;20044;-64
2022/04/23 02:19:47;;;;;;;21.20;11.77;;;;;;;;;;5006246;28;20029;-64
2022/04/23 02:22:13;;;;;;;17.65;10.80;;;;;;;;;;5031900;28;20033;-63
2022/04/23 02:24:39;;;;;;;19.95;12.55;;;;;;;;;;5014262;28;20030;-63
2022/04/23 02:27:05;;;;;;;18.65;12.07;;;;;;;;;;5013072;28;20394;-63
2022/04/23 02:29:31;;;;;;;17.15;9.82;;;;;;;;;;5032402;28;20017;-64
2022/04/23 02:31:57;;;;;;;25.63;12.70;;;;;;;;;;5030521;28;20029;-64
2022/04/23 02:34:23;;;;;;;19.38;11.10;;;;;;;;;;5031823;28;20478;-64
2022/04/23 02:36:49;;;;;;;20.08;12.40;;;;;;;;;;5013817;28;20025;-64
2022/04/23 02:39:15;;;;;;;20.42;11.32;;;;;;;;;;5013017;28;20075;-63
2022/04/23 02:41:41;;;;;;;18.85;12.07;;;;;;;;;;5031545;28;20025;-64
2022/04/23 02:44:07;;;;;;;21.08;11.68;;;;;;;;;;5014378;28;20029;-64
2022/04/23 02:46:33;;;;;;;18.83;12.68;;;;;;;;;;5031644;28;20053;-64
2022/04/23 02:49:00;;;;;;;17.52;11.32;;;;;;;;;;5031758;28;20026;-64
2022/04/23 02:51:26;;;;;;;17.55;11.10;;;;;;;;;;5029270;28;20095;-64
2022/04/23 02:53:52;;;;;;;19.05;11.80;;;;;;;;;;5030758;28;20466;-63
2022/04/23 02:56:19;;;;;;;20.88;11.45;;;;;;;;;;5031395;28;20524;-63
2022/04/23 02:58:45;;;;;;;18.50;11.30;;;;;;;;;;5022829;28;20033;-63
2022/04/23 03:01:11;;;;;;;20.05;11.35;;;;;;;;;;5031047;28;20022;-63
2022/04/23 03:03:38;;;;;;;22.27;11.90;;;;;;;;;;5031586;28;20025;-64
2022/04/23 03:06:07;;;;;;;19.08;11.35;;;;;;;;;;5027332;28;20045;-64
2022/04/23 03:08:35;;;;;;;18.17;10.80;;;;;;;;;;5030252;28;20101;-64
2022/04/23 03:11:01;;;;;;;23.52;10.85;;;;;;;;;;5032631;28;20029;-64
2022/04/23 03:13:27;;;;;;;18.70;12.13;;;;;;;;;;5031928;28;20501;-64
2022/04/23 03:15:53;;;;;;;19.55;12.02;;;;;;;;;;5032731;28;20529;-64
2022/04/23 03:18:19;;;;;;;17.25;11.38;;;;;;;;;;5030471;28;20040;-63
2022/04/23 03:20:45;;;;;;;17.10;10.48;;;;;;;;;;5034094;28;20034;-63
2022/04/23 03:23:12;;;;;;;18.00;10.73;;;;;;;;;;5032979;28;20052;-63
2022/04/23 03:25:53;;;;;;;17.02;11.15;;;;;;;;;;5033463;28;20080;-63
2022/04/23 03:28:52;;;;;;;18.30;10.13;;;;;;;;;;5034644;28;20037;-63
2022/04/23 03:31:24;;;;;;;20.90;10.90;;;;;;;;;;5034219;28;20046;-63
2022/04/23 03:33:50;;;;;;;17.42;9.70;;;;;;;;;;5041920;28;20348;-63
2022/04/23 03:36:47;;;;;;;16.52;10.15;;;;;;;;;;4981999;28;20039;-64
2022/04/23 03:39:13;;;;;;;14.23;9.68;;;;;;;;;;4968231;28;20038;-63
2022/04/23 03:41:39;;;;;;;16.58;10.57;;;;;;;;;;4972566;28;20038;-64
2022/04/23 03:44:05;;;;;;;14.00;9.15;;;;;;;;;;4988722;28;20064;-64
2022/04/23 03:46:34;;;;;;;17.23;10.15;;;;;;;;;;4973559;28;20702;-64
2022/04/23 03:49:00;;;;;;;16.10;9.88;;;;;;;;;;4989195;28;20104;-63
2022/04/23 03:51:26;;;;;;;16.13;9.32;;;;;;;;;;4975423;28;20479;-64
2022/04/23 03:53:52;;;;;;;15.15;9.50;;;;;;;;;;4975324;28;20038;-64
2022/04/23 03:56:18;;;;;;;17.80;10.13;;;;;;;;;;4975518;28;20306;-63
2022/04/23 03:58:45;;;;;;;18.45;9.73;;;;;;;;;;4986582;28;20034;-65
2022/04/23 04:01:11;;;;;;;18.95;10.57;;;;;;;;;;4969510;28;20138;-64
2022/04/23 04:03:37;;;;;;;14.38;9.75;;;;;;;;;;4973003;28;20034;-64
2022/04/23 04:06:03;;;;;;;17.02;10.02;;;;;;;;;;4989216;28;20030;-64
2022/04/23 04:08:29;;;;;;;13.23;8.38;;;;;;;;;;4979303;28;20066;-64
2022/04/23 04:10:55;;;;;;;14.57;9.77;;;;;;;;;;4975432;28;20085;-63
2022/04/23 04:13:23;;;;;;;13.85;9.75;;;;;;;;;;4991168;28;20049;-64
2022/04/23 04:15:50;;;;;;;15.23;9.63;;;;;;;;;;5029719;28;20033;-64
2022/04/23 04:18:16;;;;;;;14.82;9.75;;;;;;;;;;5027837;28;20037;-63
2022/04/23 04:20:44;;;;;;;13.68;9.30;;;;;;;;;;5028410;28;20025;-63
2022/04/23 04:23:10;;;;;;;13.80;7.88;;;;;;;;;;5030137;28;20084;-63
2022/04/23 04:25:36;;;;;;;15.07;9.80;;;;;;;;;;5030809;28;20415;-63
2022/04/23 04:28:02;;;;;;;13.93;9.35;;;;;;;;;;5029171;28;20013;-64
2022/04/23 04:31:46;;;;;;;13.57;8.70;;;;;;;;;;5028516;28;20112;-63
2022/04/23 04:33:14;;;;;;;13.77;8.65;;;;;;;;;;5030281;28;20077;-63
2022/04/23 04:35:40;;;;;;;13.63;8.18;;;;;;;;;;5029154;28;20022;-63
2022/04/23 04:38:06;;;;;;;12.13;8.35;;;;;;;;;;5055608;28;20088;-63
2022/04/23 04:40:33;;;;;;;13.00;9.02;;;;;;;;;;5028327;28;20025;-63
2022/04/23 04:42:59;;;;;;;12.93;7.43;;;;;;;;;;5029010;28;20029;-64
2022/04/23 04:54:42;;;;;;;12.20;8.13;;;;;;;;;;4950358;28;20042;-63
2022/04/23 05:03:15;;;;;;;12.38;8.65;;;;;;;;;;4951580;28;20035;-64
2022/04/23 05:05:46;;;;;;;12.23;9.10;;;;;;;;;;4948988;28;20077;-63
2022/04/23 05:08:28;;;;;;;12.07;7.72;;;;;;;;;;4951816;29;20067;-64
2022/04/23 05:11:05;;;;;;;11.40;8.20;;;;;;;;;;4967362;28;20098;-63
2022/04/23 05:13:31;;;;;;;12.63;9.05;;;;;;;;;;4948099;28;20552;-63
2022/04/23 05:19:04;;;;;;;12.48;8.15;;;;;;;;;;4934331;29;20134;-64
2022/04/23 05:21:30;;;;;;;12.88;6.63;;;;;;;;;;4928033;29;20043;-63
2022/04/23 05:23:56;;;;;;;11.98;7.93;;;;;;;;;;4958061;28;20086;-63
2022/04/23 05:26:22;;;;;;;11.73;7.63;;;;;;;;;;5044693;28;20037;-63
2022/04/23 05:28:48;;;;;;;13.05;8.23;;;;;;;;;;5027232;28;20029;-63
2022/04/23 05:31:14;;;;;;;11.57;8.30;;;;;;;;;;5027467;28;20036;-63
2022/04/23 05:33:40;;;;;;;10.70;7.35;;;;;;;;;;5029161;28;20630;-63
2022/04/23 05:36:07;;;;;;;11.00;7.38;;;;;;;;;;5027567;28;20108;-64
2022/04/23 05:38:36;;;;;;;13.45;6.93;;;;;;;;;;5038774;28;20041;-63
2022/04/23 05:41:03;;;;;;;10.65;7.38;;;;;;;;;;5026588;28;20026;-64
2022/04/23 05:43:29;;;;;;;11.63;7.07;;;;;;;;;;5028958;28;20025;-63
2022/04/23 05:45:57;;;;;;;12.00;7.32;;;;;;;;;;5026224;28;20068;-63
2022/04/23 05:48:23;;;;;;;10.85;7.28;;;;;;;;;;5028987;28;20040;-64
2022/04/23 05:50:49;;;;;;;11.10;8.07;;;;;;;;;;5020441;28;20037;-64
2022/04/23 05:53:16;;;;;;;13.55;8.68;;;;;;;;;;5027201;28;20088;-63
2022/04/23 05:55:42;;;;;;;12.95;7.45;;;;;;;;;;5027620;28;20711;-63
2022/04/23 05:58:08;;;;;;;11.63;7.55;;;;;;;;;;5027713;28;20041;-63
2022/04/23 06:00:34;;;;;;;13.18;7.68;;;;;;;;;;5029087;28;20026;-63
2022/04/23 06:03:00;;;;;;;12.30;7.63;;;;;;;;;;5028276;28;20475;-65
2022/04/23 06:05:27;;;;;;;12.77;7.10;;;;;;;;;;5033863;28;20749;-63
2022/04/23 06:07:53;;;;;;;11.20;7.53;;;;;;;;;;5059873;22;20043;-64
2022/04/23 06:10:19;;;;;;;11.10;7.30;;;;;;;;;;5072702;28;20029;-65
2022/04/23 06:12:45;;;;;;;11.38;7.90;;;;;;;;;;5071100;28;20025;-64
2022/04/23 06:15:11;;;;;;;10.32;6.90;;;;;;;;;;5070282;28;20032;-64
2022/04/23 06:17:37;;;;;;;11.75;7.45;;;;;;;;;;5068980;28;20029;-64
2022/04/23 06:23:34;;;;;;;21.67;8.82;;;;;;;;;;5009610;28;20125;-68
2022/04/23 06:26:01;;;;;;;11.35;8.40;;;;;;;;;;5009269;28;20030;-69
2022/04/23 06:28:27;;;;;;;12.60;7.45;;;;;;;;;;5007801;28;20181;-69
2022/04/23 06:30:54;;;;;;;14.05;8.77;;;;;;;;;;5014140;28;20041;-69
2022/04/23 06:33:20;;;;;;;13.02;9.07;;;;;;;;;;5018148;28;20054;-69
2022/04/23 06:35:46;;;;;;;13.20;8.27;;;;;;;;;;5009578;28;20042;-70
2022/04/23 06:38:12;;;;;;;14.77;9.00;;;;;;;;;;5007334;28;20045;-69
2022/04/23 06:40:38;;;;;;;13.98;7.65;;;;;;;;;;5017427;28;20033;-69
2022/04/23 06:43:04;;;;;;;12.75;8.25;;;;;;;;;;5015568;28;20029;-69
2022/04/23 07:32:37;;;;;;;14.30;7.85;;;;;;;;;;5060989;28;20405;-69
2022/04/23 07:37:49;;;;;;;19.90;8.73;;;;;;;;;;5062328;28;20043;-69
2022/04/23 07:40:15;;;;;;;15.35;8.20;;;;;;;;;;5050009;28;20028;-69
2022/04/23 07:42:41;;;;;;;18.38;9.55;;;;;;;;;;5070460;28;20024;-70
2022/04/23 07:51:35;;;;;;;12.75;8.18;;;;;;;;;;5029742;28;20044;-69
2022/04/23 07:54:01;;;;;;;13.75;8.15;;;;;;;;;;5024937;28;20048;-69
2022/04/23 07:56:36;;;;;;;13.73;8.60;;;;;;;;;;5050752;28;20067;-69
2022/04/23 07:59:03;;;;;;;13.68;8.13;;;;;;;;;;5027563;28;20108;-69
2022/04/23 08:32:39;;;;;;;15.77;8.68;;;;;;;;;;4991170;28;20153;-70
2022/04/23 08:35:24;;;;;;;18.23;8.75;;;;;;;;;;4992022;28;20069;-69
2022/04/23 08:37:50;;;;;;;14.05;8.13;;;;;;;;;;4988176;28;20045;-69
2022/04/23 08:40:16;;;;;;;16.80;9.88;;;;;;;;;;4987758;28;20046;-69
2022/04/23 08:42:42;;;;;;;17.90;9.40;;;;;;;;;;4987927;28;20069;-69
2022/04/23 09:53:19;;;;;;;18.17;10.93;;;;;;;;;;5057620;28;20052;-67
2022/04/23 09:55:46;;;;;;;23.02;11.55;;;;;;;;;;5048720;28;20041;-60
2022/04/23 09:58:13;;;;;;;24.25;11.68;;;;;;;;;;5066268;28;20044;-58
2022/04/23 10:00:40;;;;;;;20.80;12.63;;;;;;;;;;5072075;28;20024;-59
2022/04/23 10:03:07;;;;;;;20.92;10.80;;;;;;;;;;5072850;28;20027;-58
2022/04/23 10:05:38;;;;;;;18.33;10.77;;;;;;;;;;5063598;28;20025;-58
2022/04/23 10:08:10;;;;;;;16.00;10.15;;;;;;;;;;5072112;28;20032;-58
2022/04/23 10:10:39;;;;;;;24.95;11.52;;;;;;;;;;5070334;28;20494;-58
2022/04/23 10:13:07;;;;;;;23.77;10.82;;;;;;;;;;5072268;28;20025;-58
2022/04/23 10:15:33;;;;;;;20.00;10.25;;;;;;;;;;5071452;28;20029;-58
2022/04/23 10:18:00;;;;;;;18.67;11.13;;;;;;;;;;5070537;28;20036;-59
2022/04/23 10:20:29;;;;;;;18.60;9.88;;;;;;;;;;5063853;28;20019;-59
2022/04/23 10:23:08;;;;;;;17.75;9.63;;;;;;;;;;5051054;28;20048;-58
2022/04/23 10:25:41;;;;;;;18.50;10.88;;;;;;;;;;5049648;28;20381;-58
2022/04/23 11:02:05;;;;;;;19.98;10.77;;;;;;;;;;5030884;28;20048;-58
2022/04/23 11:13:36;;;;;;;19.13;10.85;;;;;;;;;;5047942;28;20071;-58
2022/04/23 11:16:08;;;;;;;31.90;11.65;;;;;;;;;;5048371;28;20064;-58
2022/04/23 11:18:34;;;;;;;21.45;10.05;;;;;;;;;;5050168;28;20037;-59
2022/04/23 11:21:06;;;;;;;19.05;11.40;;;;;;;;;;5050662;28;20028;-58
2022/04/23 11:23:35;;;;;;;19.40;11.57;;;;;;;;;;5050624;28;20098;-59
2022/04/23 11:26:12;;;;;;;20.58;11.30;;;;;;;;;;5050616;28;20497;-58
2022/04/23 11:28:39;;;;;;;17.25;10.18;;;;;;;;;;5049124;28;20060;-58
2022/04/23 11:31:16;;;;;;;19.92;11.18;;;;;;;;;;5050662;28;20036;-58
2022/04/23 11:33:50;;;;;;;20.30;10.65;;;;;;;;;;5032374;28;20028;-58
2022/04/23 11:36:16;;;;;;;19.00;10.02;;;;;;;;;;5032515;28;20625;-58
2022/04/23 11:38:42;;;;;;;21.95;10.30;;;;;;;;;;5050706;28;20029;-58
2022/04/23 11:41:09;;;;;;;17.33;10.80;;;;;;;;;;5032710;28;20525;-59
2022/04/23 11:43:39;;;;;;;20.02;10.48;;;;;;;;;;5031971;28;20021;-58
2022/04/23 11:46:06;;;;;;;15.80;9.40;;;;;;;;;;5032547;28;20032;-58
2022/04/23 11:48:48;;;;;;;15.00;9.80;;;;;;;;;;5049661;28;20029;-60
2022/04/23 11:51:15;;;;;;;24.33;10.10;;;;;;;;;;5050471;28;20060;-59
2022/04/23 11:54:00;;;;;;;19.70;9.13;;;;;;;;;;5050633;28;20269;-59
2022/04/23 12:03:02;;;;;;;16.35;9.48;;;;;;;;;;5020527;28;20067;-59
2022/04/23 12:05:38;;;;;;;15.27;8.95;;;;;;;;;;5049519;28;20052;-60
2022/04/23 12:08:05;;;;;;;15.70;8.88;;;;;;;;;;5051026;28;20078;-59
2022/04/23 12:13:35;;;;;;;18.25;9.75;;;;;;;;;;5090814;23;20082;-61
2022/04/23 12:16:03;;;;;;;16.40;8.98;;;;;;;;;;5078225;28;20074;-62
2022/04/23 12:18:29;;;;;;;13.68;8.20;;;;;;;;;;5078964;28;20032;-61
2022/04/23 12:21:05;;;;;;;14.02;8.27;;;;;;;;;;5066291;28;20067;-62
2022/04/23 12:26:41;;;;;;;5.78;2.78;;;;;;;;;;5070756;28;20031;-62
2022/04/23 12:43:17;;;;;;;19.25;10.90;;;;;;;;;;5074898;28;20039;-62
2022/04/23 12:45:43;;;;;;;17.08;9.27;;;;;;;;;;5067845;28;20114;-61
2022/04/23 12:48:09;;;;;;;18.02;10.48;;;;;;;;;;5083182;28;20028;-61
2022/04/23 12:50:35;;;;;;;24.50;11.20;;;;;;;;;;5089607;28;20031;-61
2022/04/23 12:53:01;;;;;;;18.40;9.90;;;;;;;;;;5076435;28;20017;-61
2022/04/23 12:55:30;;;;;;;18.83;9.88;;;;;;;;;;5085179;28;20039;-62
2022/04/23 12:58:09;;;;;;;13.40;8.88;;;;;;;;;;5067034;28;20059;-62
2022/04/23 13:00:36;;;;;;;15.88;7.80;;;;;;;;;;5088427;28;20492;-62
2022/04/23 13:03:35;;;;;;;14.82;8.80;;;;;;;;;;5073728;28;20024;-61
2022/04/23 13:06:01;;;;;;;17.73;10.93;;;;;;;;;;5006284;28;20057;-61
2022/04/23 13:11:24;;;;;;;16.42;10.07;;;;;;;;;;5007270;28;20440;-61
2022/04/23 13:13:53;;;;;;;15.98;9.30;;;;;;;;;;5016297;28;20449;-61
2022/04/23 13:19:31;;;;;;;14.82;8.50;;;;;;;;;;4975515;28;20045;-62
2022/04/23 13:25:01;;;;;;;18.55;10.15;;;;;;;;;;4971130;28;20026;-64
2022/04/23 13:27:27;;;;;;;15.07;8.85;;;;;;;;;;4951114;28;20027;-61
2022/04/23 13:29:53;;;;;;;16.17;9.95;;;;;;;;;;4977138;28;20094;-62
2022/04/23 13:32:19;;;;;;;19.67;11.00;;;;;;;;;;4970950;28;20031;-60
2022/04/23 13:34:45;;;;;;;18.33;9.52;;;;;;;;;;4954722;28;20035;-62
2022/04/23 13:37:11;;;;;;;16.88;11.02;;;;;;;;;;4971174;28;20035;-61
2022/04/23 13:39:37;;;;;;;20.42;9.07;;;;;;;;;;4970464;28;20105;-61
2022/04/23 13:42:04;;;;;;;17.83;9.60;;;;;;;;;;4990731;28;20045;-62
2022/04/23 13:44:31;;;;;;;15.20;8.52;;;;;;;;;;5027954;28;20047;-60
2022/04/23 13:46:57;;;;;;;24.00;10.30;;;;;;;;;;5028768;28;20493;-60
2022/04/23 13:49:24;;;;;;;16.13;9.68;;;;;;;;;;5041072;28;20051;-61
2022/04/23 13:51:50;;;;;;;17.88;9.82;;;;;;;;;;5084316;28;20488;-60
2022/04/23 13:54:16;;;;;;;27.08;9.85;;;;;;;;;;5078856;28;20047;-60
2022/04/23 13:56:43;;;;;;;20.30;10.10;;;;;;;;;;5074173;28;20039;-60
2022/04/23 13:59:10;;;;;;;19.33;10.85;;;;;;;;;;5086399;28;20029;-60
2022/04/23 14:01:39;;;;;;;16.70;10.80;;;;;;;;;;5054493;28;20060;-60
2022/04/23 14:12:20;;;;;;;20.85;12.27;;;;;;;;;;5085644;28;20040;-60
2022/04/23 14:14:46;;;;;;;23.88;10.40;;;;;;;;;;5106778;28;20032;-60
2022/04/23 14:17:12;;;;;;;20.42;12.27;;;;;;;;;;5081843;28;20088;-61
2022/04/23 14:19:38;;;;;;;22.02;11.95;;;;;;;;;;5096680;28;20096;-60
2022/04/23 14:22:05;;;;;;;26.75;12.80;;;;;;;;;;5105769;28;20082;-60
2022/04/23 14:24:34;;;;;;;22.88;12.43;;;;;;;;;;5102395;28;20126;-60
2022/04/23 14:27:00;;;;;;;22.00;11.32;;;;;;;;;;5088416;28;20020;-61
2022/04/23 14:29:26;;;;;;;21.45;11.48;;;;;;;;;;5108545;28;20030;-60
2022/04/23 14:31:52;;;;;;;27.15;13.80;;;;;;;;;;5104151;28;20027;-60
2022/04/23 14:34:18;;;;;;;29.80;16.13;;;;;;;;;;5111519;28;20043;-59
2022/04/23 14:36:44;;;;;;;20.73;12.73;;;;;;;;;;5102436;28;20028;-60
2022/04/23 14:39:11;;;;;;;26.40;13.20;;;;;;;;;;5106323;28;20036;-60
2022/04/23 14:41:37;;;;;;;25.88;13.57;;;;;;;;;;5103003;28;20020;-60
2022/04/23 14:44:03;;;;;;;23.13;12.77;;;;;;;;;;5111343;28;20568;-59
2022/04/23 14:46:29;;;;;;;28.90;14.93;;;;;;;;;;5095178;28;20034;-59
2022/04/23 14:48:55;;;;;;;21.25;12.60;;;;;;;;;;5089997;28;20031;-60
2022/04/23 14:54:06;;;;;;;27.45;13.20;;;;;;;;;;5102845;28;20108;-61
2022/04/23 14:56:32;;;;;;;24.02;12.45;;;;;;;;;;5093722;28;20361;-60
2022/04/23 14:59:00;;;;;;;26.15;13.52;;;;;;;;;;5101796;28;20038;-59
2022/04/23 15:01:26;;;;;;;38.95;16.80;;;;;;;;;;5106241;28;20043;-59
2022/04/23 15:03:52;;;;;;;24.45;12.27;;;;;;;;;;5097003;28;20073;-60
2022/04/23 15:06:21;;;;;;;26.42;14.13;;;;;;;;;;5087205;28;20032;-60
2022/04/23 15:08:47;;;;;;;22.05;12.80;;;;;;;;;;5088226;28;20482;-60
2022/04/23 15:11:13;;;;;;;24.98;14.32;;;;;;;;;;5086385;28;20487;-60
2022/04/23 15:13:40;;;;;;;25.75;13.55;;;;;;;;;;5106463;28;20023;-60
2022/04/23 15:16:06;;;;;;;25.08;13.50;;;;;;;;;;5097524;28;20077;-60
2022/04/23 15:18:32;;;;;;;24.92;14.73;;;;;;;;;;5110752;28;20433;-60
2022/04/23 15:20:59;;;;;;;26.25;13.27;;;;;;;;;;5081582;28;20057;-60
2022/04/23 15:23:25;;;;;;;25.58;14.95;;;;;;;;;;5094360;28;20059;-60
2022/04/23 15:44:37;;;;;;;27.48;13.60;;;;;;;;;;5103625;28;20040;-60
2022/04/23 15:47:03;;;;;;;40.85;14.82;;;;;;;;;;5102052;28;20106;-60
2022/04/23 15:49:29;;;;;;;31.55;13.82;;;;;;;;;;5102160;28;20039;-60
2022/04/23 15:51:56;;;;;;;27.80;15.63;;;;;;;;;;5090162;28;20034;-60
2022/04/23 15:54:23;;;;;;;26.38;14.52;;;;;;;;;;5098765;28;20504;-60
2022/04/23 15:56:49;;;;;;;32.92;15.85;;;;;;;;;;5107645;28;20403;-59
2022/04/23 15:59:15;;;;;;;26.73;13.93;;;;;;;;;;5091397;28;20040;-59
2022/04/23 16:01:41;;;;;;;29.35;14.07;;;;;;;;;;5101916;28;20103;-60
2022/04/23 16:07:02;;;;;;;27.02;13.70;;;;;;;;;;5113294;28;20069;-61
2022/04/23 16:09:29;;;;;;;32.28;16.10;;;;;;;;;;5102172;28;20503;-60
2022/04/23 16:11:55;;;;;;;30.83;15.57;;;;;;;;;;5100290;28;20024;-60
2022/04/23 16:14:22;;;;;;;32.15;14.88;;;;;;;;;;5103334;28;20054;-60
2022/04/23 16:16:48;;;;;;;28.45;15.13;;;;;;;;;;5109696;28;20084;-60
2022/04/23 16:19:15;;;;;;;33.10;17.33;;;;;;;;;;5091168;28;20035;-59
2022/04/23 16:21:41;;;;;;;27.38;16.67;;;;;;;;;;5090748;28;20051;-60
2022/04/23 16:24:07;;;;;;;27.90;14.85;;;;;;;;;;5106175;28;20095;-60
2022/04/23 16:26:33;;;;;;;27.00;14.77;;;;;;;;;;5092075;28;20023;-60
2022/04/23 16:28:59;;;;;;;28.33;15.32;;;;;;;;;;5089014;28;20370;-60
2022/04/23 16:31:26;;;;;;;30.60;15.57;;;;;;;;;;5109843;28;20481;-60
2022/04/23 16:33:54;;;;;;;25.50;14.32;;;;;;;;;;5100874;28;20438;-60
2022/04/23 16:47:21;;;;;;;29.25;15.43;;;;;;;;;;5102796;28;20084;-60
2022/04/23 16:49:47;;;;;;;28.70;15.25;;;;;;;;;;5087700;28;20031;-60
2022/04/23 16:52:16;;;;;;;27.00;13.98;;;;;;;;;;5104300;28;20028;-60
2022/04/23 16:54:42;;;;;;;31.95;15.45;;;;;;;;;;5087183;28;20023;-60
2022/04/23 16:57:28;;;;;;;24.00;14.43;;;;;;;;;;5108490;28;20028;-60
2022/04/23 16:59:54;;;;;;;26.50;13.73;;;;;;;;;;5078842;28;20169;-60
2022/04/23 17:02:20;;;;;;;28.20;14.27;;;;;;;;;;5097960;28;20047;-60
2022/04/23 17:04:46;;;;;;;27.67;14.07;;;;;;;;;;5081115;28;20050;-60
2022/04/23 17:07:13;;;;;;;25.13;15.18;;;;;;;;;;5077029;28;20024;-60
2022/04/23 17:09:39;;;;;;;26.95;14.55;;;;;;;;;;5105137;28;20024;-66
2022/04/23 17:12:05;;;;;;;26.85;14.40;;;;;;;;;;5106126;28;20115;-66
2022/04/23 17:14:31;;;;;;;25.50;14.18;;;;;;;;;;5090168;28;20113;-65
2022/04/23 17:16:57;;;;;;;25.52;14.38;;;;;;;;;;5086633;28;20537;-66
2022/04/23 17:19:23;;;;;;;28.33;15.50;;;;;;;;;;5081732;28;20055;-66
2022/04/23 17:21:49;;;;;;;27.98;13.30;;;;;;;;;;5083150;28;20044;-66
2022/04/23 17:24:17;;;;;;;24.45;13.65;;;;;;;;;;5084834;28;20028;-66
2022/04/23 17:26:46;;;;;;;29.15;14.10;;;;;;;;;;5079100;28;20488;-66
2022/04/23 17:29:15;;;;;;;26.03;13.40;;;;;;;;;;5085450;28;20095;-66
2022/04/23 17:31:41;;;;;;;20.83;12.88;;;;;;;;;;5077702;28;20107;-66
2022/04/23 17:34:08;;;;;;;25.67;14.93;;;;;;;;;;5081056;28;20032;-66
2022/04/23 17:36:34;;;;;;;26.48;13.20;;;;;;;;;;5079568;28;20028;-66
2022/04/23 17:39:00;;;;;;;24.80;13.73;;;;;;;;;;5068157;28;20587;-66
2022/04/23 17:41:27;;;;;;;26.48;13.70;;;;;;;;;;5070361;28;20093;-66
2022/04/23 17:43:53;;;;;;;25.30;14.48;;;;;;;;;;5080045;28;20756;-66
2022/04/23 17:46:20;;;;;;;24.00;14.50;;;;;;;;;;5086491;28;20024;-66
2022/04/23 17:48:46;;;;;;;21.08;13.10;;;;;;;;;;5081305;28;20028;-66
2022/04/23 17:51:12;;;;;;;25.08;14.15;;;;;;;;;;5075742;28;20020;-66
2022/04/23 17:53:39;;;;;;;25.67;13.65;;;;;;;;;;5066464;28;20029;-66
2022/04/23 17:56:05;;;;;;;21.67;13.23;;;;;;;;;;5081672;28;20103;-66
2022/04/23 17:58:32;;;;;;;23.90;13.90;;;;;;;;;;5080359;28;20086;-66
2022/04/23 18:09:13;;;;;;;25.77;13.82;;;;;;;;;;5089755;28;20098;-66
2022/04/23 18:11:39;;;;;;;22.80;13.35;;;;;;;;;;5091074;28;20031;-66
2022/04/23 18:14:05;;;;;;;25.55;14.38;;;;;;;;;;5109989;27;20043;-66
2022/04/23 18:16:34;;;;;;;21.63;12.77;;;;;;;;;;5091557;28;20043;-66
2022/04/23 18:19:00;;;;;;;25.88;13.13;;;;;;;;;;5107227;27;20024;-66
2022/04/23 18:21:27;;;;;;;22.33;12.18;;;;;;;;;;5091913;27;20107;-66
2022/04/23 18:23:54;;;;;;;23.52;12.85;;;;;;;;;;5098916;28;20030;-66
2022/04/23 18:26:21;;;;;;;23.35;12.00;;;;;;;;;;5112219;27;20038;-66
2022/04/23 18:28:47;;;;;;;24.63;13.43;;;;;;;;;;5114076;28;20027;-66
2022/04/23 18:31:13;;;;;;;23.67;12.60;;;;;;;;;;5095482;27;20085;-67
2022/04/23 18:33:39;;;;;;;23.63;12.45;;;;;;;;;;5113529;27;20024;-65
2022/04/23 18:36:06;;;;;;;23.58;12.77;;;;;;;;;;5110569;28;20023;-66
2022/04/23 18:38:35;;;;;;;19.92;12.27;;;;;;;;;;5092015;28;20039;-66
2022/04/23 18:41:02;;;;;;;26.73;11.65;;;;;;;;;;5113472;27;20032;-67
2022/04/23 18:43:28;;;;;;;19.50;11.07;;;;;;;;;;5104014;27;20019;-66
2022/04/23 18:45:54;;;;;;;20.48;11.25;;;;;;;;;;5112679;27;20216;-66
2022/04/23 18:48:20;;;;;;;24.27;11.23;;;;;;;;;;5109219;27;20030;-66
2022/04/23 18:50:47;;;;;;;19.77;11.68;;;;;;;;;;5116754;27;20027;-66
2022/04/23 18:53:14;;;;;;;20.35;11.32;;;;;;;;;;5101044;27;20123;-66
2022/04/23 18:55:40;;;;;;;18.48;11.05;;;;;;;;;;5108645;27;20027;-67
2022/04/23 18:58:06;;;;;;;17.83;11.18;;;;;;;;;;5088563;28;20031;-66
2022/04/23 19:00:32;;;;;;;18.55;11.57;;;;;;;;;;5107325;27;20678;-66
2022/04/23 19:02:59;;;;;;;19.77;12.05;;;;;;;;;;5106168;28;20480;-67
2022/04/23 19:05:28;;;;;;;18.05;10.77;;;;;;;;;;5107962;28;20059;-66
2022/04/23 19:07:54;;;;;;;21.35;11.98;;;;;;;;;;5108827;28;20130;-66
2022/04/23 19:10:20;;;;;;;18.95;10.98;;;;;;;;;;5109798;28;20110;-66
2022/04/23 19:12:46;;;;;;;16.73;10.23;;;;;;;;;;5085266;28;20023;-66
2022/04/23 19:15:13;;;;;;;18.85;10.43;;;;;;;;;;5076711;28;20028;-66
2022/04/23 19:17:43;;;;;;;18.42;9.88;;;;;;;;;;5079959;28;20025;-66
2022/04/23 19:20:09;;;;;;;29.27;9.57;;;;;;;;;;5062280;28;20409;-66
2022/04/23 19:28:20;;;;;;;17.58;9.95;;;;;;;;;;5031814;28;20469;-66
2022/04/23 19:30:46;;;;;;;21.05;9.65;;;;;;;;;;5081354;28;20089;-66
2022/04/23 19:33:12;;;;;;;16.58;9.45;;;;;;;;;;5068475;28;20114;-66
2022/04/23 19:35:38;;;;;;;18.20;9.93;;;;;;;;;;5081631;28;20047;-66
2022/04/23 19:38:04;;;;;;;17.55;10.40;;;;;;;;;;5080138;28;20126;-67
2022/04/23 19:40:31;;;;;;;14.32;8.82;;;;;;;;;;5080172;28;20083;-66
2022/04/23 19:42:57;;;;;;;15.32;9.15;;;;;;;;;;5076016;28;20456;-66
2022/04/23 19:45:24;;;;;;;17.52;9.10;;;;;;;;;;5075865;28;20115;-66